Dalton, Texas
Current Conditions -  °F | °C
As of 11:35 AM on Monday 22 Dec 2014 (Local Time) from KOSA Reporting Station
Scattered Clouds Scattered Clouds  
Wind Chill: 63°   Ceiling: Unl
Heat Index: 63°   Visibility: 10mi
Dew Point: 54°   Wind: 12mph
Humidity: 71%   Direction: 180°S
Pressure: 29.61"   Gusts: NA
Location:  33.2006°N, 94.6977°W
Report Text: KOSA 221735Z AUTO 18010KT 10SM SCT040 17/12 A2961 RMK AO1 T01740122
Loading
Personal Weather Stations






























Interactive Weather Map New forecast layout! Learn more

10-Day Weather Forecast

Advertisements
Track Severe Weather on mobile